aascrace

 

 

Pioneer Club One Loft - FINAL INVENTORY 2020

Station: FINAL INVENTORY 2020 - T Race

Distance: 0.062 Miles

Release: 21-Sep-2020 16:00

Weather Release:    Arrival:

Wind at Release:     Wind at Arrival:

Temp at Release: °    Temp at Arrival: °

Lofts: 35

Birds: 61

Clocked: 60

Good Luck to Everyone!
Drops Pos Breeder Pigeon Name Color Sex Ent Arrival Speed To Win Elg PdPickPhoto
1 Calgary Boys 3 - AB 8201-CU20-CU 🔵Splash Of Cash-WB-NG- BBPI H 1 16:44:57.00 2.433 00:00:00 Yes
2 Antbar Loft - ON 2962-CU20-YRI 🔴Phoenix Fire Storm-KP BB C 1 16:46:11.00 2.368 00:01:14 Yes
3 Rick Fyfe - ON 0753-CU20-NIAG 🔴Dart-NG-EE-SL MLY H 1 16:47:24.00 2.307 00:02:27 Yes
4 J & L Koper - ON 14807-CU20-CU 🔵Polish Baily-JL-JZ-SL BBWF H 1 16:47:33.00 2.300 00:02:36 Yes
5 Grampa Loft - ON 9273-CU20-CU 🟢Little People-ZQ-EB-N BB H 1 16:48:55.00 2.236 00:03:58 Yes
6 Grampa Loft - ON 9250-CU20-CU 🟢Tiny-JZ-SL-KP BB H 2 16:50:13.00 2.178 00:05:16 Yes
7 Peter Kuo Loft - ON 1072-CU20-NW 🔵AMIJ-DD BL H 1 16:52:14.00 2.094 00:07:17 Yes
8 King Conch Loft - ON 2082-CU20-KC 🔴Captain Conch-ZQ-EB-N BB H 1 16:52:33.00 2.081 00:07:36 Yes
9 Klaus Petzold - AB 0717-CU20-CRPU 🟢Dark Knight-KP-KP-SL DKCH H 1 16:54:40.00 2.001 00:09:42 Yes
10 J & L Koper - ON 14823-CU20-CU 🔵Polish Princess-JZ-KE BBPI H 2 16:55:04.00 1.986 00:10:07 Yes
11 Ian Sibbald - ON 5488-CU20-CU 🟡Chulla-IS-DD-KP BB H 1 16:57:20.00 1.907 00:12:24 Yes
12 Beelik & Alves - ON 10431-CU20-CU 🔵Tony's Donation-WB-NG BB H 1 16:57:49.00 1.892 00:12:51 Yes
13 J K Loft 2 - ON 0111-CU20-JKL 🟡Maomao-ZQ-KE-SL BC C 1 16:59:04.00 1.851 00:14:08 Yes
14 J & L Koper - ON 14822-CU20-CU 🔵Polish Prince-FE BBPI C 3 17:00:18.00 1.814 00:15:20 Missing
15 Mp Pigeons - AB 19201-CU20-CU 🟡MR BOURGES BOY-MP-JZ- BC C 1 17:03:09.00 1.732 00:18:12 Yes
16 Tavares & Son - ON 6410-CU20-MISS 🔴Checker Flag-NG-SL BLCH H 1 17:04:15.00 1.702 00:19:18 Yes
17 Paul Tsiampas - ON 20135-CU20-CU 🔵Prima-ZQ-KE-SL BB H 1 17:04:34.00 1.694 00:19:37 Yes
18 Tavares & Son - ON 7341-CU20-MISS 🔴Eatmyfeathers-EB-SL-J BB H 2 17:05:52.00 1.660 00:20:56 Yes
19 Calgary Boys 3 - AB 8218-CU20-CU 🔵Big Bad John-WB-SL-NG BB C 2 17:08:02.00 1.607 00:23:06 Yes
20 King Conch Loft - ON 22521-CU20-CU 🔴Queen Conch-KP-NG-HL BB H 2 17:09:06.00 1.583 00:24:08 Yes
21 N-D Loft - ON 0954-CU20-FLAM 🔴Shania-HR-JZ DCPI H 1 17:10:10.00 1.559 00:25:12 Yes
22 Kearns Loft - ON 11250-CU20-CU 🟡Exterminator JR-JZ-NG BB H 1 17:11:43.00 1.525 00:26:46 Yes
23 Werner Vahle - ON 8770-CU20-CU 🟢Time Tells-WV-WV-DO BBWF C 1 17:13:49.00 1.482 00:28:51 Yes
24 Emily Eichhorn - ON 8230-CU20-BARR 🟢Snickers-JZ-NG-FE CHB H 1 17:14:03.00 1.477 00:29:06 Yes
25 Feathers Of Glory - ON 20036-CU20-CU 🟡F O G Jr-NG BBPI H 1 17:15:13.00 1.454 00:30:16 Missing
26 Sparky Loft - ON 2922-CU20-YRI 🟡Dosha Jr-SP-EB BB H 1 17:16:14.00 1.435 00:31:16 Yes
27 Tavares & Son - ON 6434-CU20-MISS 🔴Blue Streak-NG BB H 3 17:17:16.00 1.415 00:32:20 Yes
28 Kempens Koupe - ON 20042-CU20-CU 🟡KK-ZQ-JZ-EB BB C 1 17:20:35.00 1.357 00:35:38 Yes
29 D & D Loft - QC 20410-CU20-LAVA 🟢HELL RAISER-DD BB H 1 17:21:04.00 1.349 00:36:07 Yes
30 Island Paradise Loft - ON 0301-CU20-MVRP 🔴Petey Pigeon-NG DC C 1 17:23:05.00 1.316 00:38:09 Yes
31 D & D Crozier - ON 20951-CU20-OSH 🔵Mighty Mittens-DB BC C 1 17:23:29.00 1.310 00:38:32 Yes
32 Pigeonempire.Com Guido Madrusan - ON 5589-CU20-CU 🟢Lanna BB H 1 17:24:38.00 1.292 00:39:42 Inj
33 Fernando Ditri - ON 0564-CU20-HV 🟢SG-TERRY-JZ-SL-HR BPI H 1 17:25:47.00 1.275 00:40:49 Yes
34 South Shore Loft - NS 20094-CU20-NOVA 🔴MONA LISA V BLK WIDOW BB C 1 17:27:06.00 1.256 00:42:07 Yes
35 Kearns Loft - ON 11246-CU20-CU 🟡Jet-JL BB H 2 17:28:10.00 1.240 00:43:15 Yes
36 Stacey Family Lofts - ON 60528-AU20-ARPU 🟢When Doves Cry-SL-HR BLCH H 1 17:30:14.00 1.212 00:45:17 Yes
37 Klaus Petzold - AB 0714-CU20-CRPU 🟢Tequila-KP-KP-SL BL H 2 17:30:36.00 1.207 00:45:39 Yes
38 J K Loft 2 - ON 0222-CU20-JKL 🟡Golden Dragon-ZQ-HR-S BB C 2 17:31:39.00 1.193 00:46:43 Yes
39 Werner Vahle - ON 8766-CU20-CU 🟢Ladies Man DCWF C 2 17:33:32.00 1.169 00:48:36 Yes
40 Tavares & Son - ON 7328-CU20-MIS 🔴SINGITAGAINSAM-JH-SL- BB H 4 17:34:44.00 1.154 00:49:49 Yes
41 Klaus Petzold - AB 0792-CU20-CRPU 🟢Sassy-AP-AP-MN BL H 3 17:35:19.00 1.147 00:50:24 Yes
42 Ian Sibbald - ON 10282-CU20-CU 🟡Kano-IS-HR-MS BCH H 2 17:37:24.00 1.123 00:52:26 Yes
43 Emily Eichhorn - ON 8229-CU20-BARR 🟢Kit-Kat-JZ-NG-FE CHB H 2 17:38:18.00 1.113 00:53:19 Yes
44 Ian Sibbald - ON 5425-CU20-CU 🟡Yami-IS-KE BBWF H 3 17:38:42.00 1.108 00:53:45 Missing
45 Klaus Petzold - AB 0716-CU20-CRPU 🟢Beetlejuice-KP DKCH H 4 17:40:07.00 1.092 00:55:12 Yes
46 Calgary Boys 3 - AB 8202-CU20-CU 🔵Pioneer Wizard-WB-JL- BBPI C 3 17:41:21.00 1.079 00:56:24 Yes
47 Len Briggs - ON 10458-CU20-CU 🔵Len Loves Money-ZQ-HR BB H 1 17:42:32.00 1.067 00:57:33 Yes
48 Gregoruk Loft - ON 0250-CU20-TBAY 🟢Little Chief-DG-NG-SL BB H 1 17:44:21.00 1.048 00:59:24 Yes
49 Calgary Boys 3 - AB 8208-CU20-CU 🔵Pole Dancer-WB-NG-JL BBPI H 4 17:45:30.00 1.037 01:00:31 Yes
50 Teixeira Loft - ON 2734-CU20-CU 🔴My Pick-CT-NG-KE BB H 1 17:46:29.00 1.027 01:01:32 Yes
51 Teixeira Loft - ON 2724-CU20-CU 🔴The Sound-JZ-CT-KP BB C 2 17:47:27.00 1.018 01:02:29 Yes
52 Gordon Jarrett - ON 7857-CU20-CU 🔵Kruzer-JZ-JZ-SL BC C 1 17:48:00.00 1.013 01:03:01 Yes
53 Wolfhillloft - ON 0127-CU20-WOLF 🟡Lone Wolf-MH-DO-DO BBWF C 1 17:49:40.00 0.997 01:04:44 Yes
54 Teixeira Loft - ON 2743-CU20-CU 🔴Ocean's 11-CT-RS-SL BC H 3 17:49:55.00 0.995 01:04:58 Yes
55 Silvercreek Loft - ON 13121-CU20-CU 🔵Little Divock-DD-SL-K BB C 1 17:50:56.00 0.986 01:05:58 Yes
56 Len Briggs - ON 10478-CU20-CU 🔵Mr Money-DD-NG-SL BB H 2 18:46:22.00 0.657 02:01:30 Yes
57 Calgary Boys 3 - AB 8203-CU20-CU 🔵See Me Now-WB RDGR H 5 18:47:18.00 0.654 02:02:16 Inj
58 Antbar Loft - ON 2963-CU20-YRI 🔴Lethal Justice-ZQ-TS- BB H 2 18:48:14.00 0.650 02:03:18 Yes
59 Peter Kuo Loft - ON 1075-CU20-NW 🔵Ali.Kuo BL H 2 18:49:32.00 0.645 02:04:36 Inj
60 Silani - ON 7971-CU20-MISS 🟡Finch BB C 1 18:50:19.00 0.642 02:05:24 Inj

There are 60 bird records

Note: These Race Results are unofficial and subject to change until verified by the Race Committee and declared final.

 

windy